tititudorancea.com
Station Historical Data
Daily Summary for July 22, 2018 Units:  Metric    English   Both
« Previous Day
Next Day »
Daily Weekly Monthly Yearly Custom
  High: Low: Average:
Temperature: -17.8 °C 5.1 °C 9.4 °C
Dew Point: -17.8 °C 1.7 °C 3.3 °C
Humidity: Humidity % 53 % 66 %
Wind Speed: 0 km/h 3.7 km/h 24.6 km/h
Wind Gust: 0 km/h - -
Wind:- - SE
Pressure: 0 hPa 1013.8 hPa -
Precipitation: 0 mm    
Historical Graphs
 
 
Ararat weather Find more about Weather in Ararat, AU


 



 


Tabular Data for July 22, 2018
Time Temperature Dew Point Pressure Wind Wind Speed Wind Gust Humidity Rainfall Rate (Hourly)
-17.8 °C -17.8 °C 0 hPa Calm     Humidity % 0 mm
00:04 5.4 °C 3.6 °C 1021.6 hPa NNW 3.7 km/h 2.6 km/h 88 % 0 mm
00:09 5.4 °C 3.6 °C 1021.6 hPa NNW 5.6 km/h 3.1 km/h 88 % 0 mm
00:14 5.5 °C 3.7 °C 1021.6 hPa North 5.6 km/h 3.9 km/h 88 % 0 mm
00:19 5.6 °C 3.8 °C 1021.6 hPa North 5.6 km/h 4.5 km/h 88 % 0 mm
00:24 5.7 °C 3.9 °C 1021.6 hPa NNW 9.3 km/h 4.3 km/h 88 % 0 mm
00:29 5.7 °C 3.7 °C 1021.6 hPa NNW 5.6 km/h 4.3 km/h 87 % 0 mm
00:34 5.7 °C 3.7 °C 1021.6 hPa NNW 5.6 km/h 3.7 km/h 87 % 0 mm
00:39 5.7 °C 3.7 °C 1021.2 hPa North 5.6 km/h 3.2 km/h 87 % 0 mm
00:44 5.6 °C 3.6 °C 1021.2 hPa NNW 6.4 km/h 4.3 km/h 87 % 0 mm
00:49 5.5 °C 3.5 °C 1021.2 hPa NNW 3.7 km/h 3.2 km/h 87 % 0 mm
00:54 5.5 °C 3.5 °C 1021.2 hPa North 5.6 km/h 2.9 km/h 87 % 0 mm
00:59 5.4 °C 3.4 °C 1021.2 hPa NNW 5.6 km/h 3.5 km/h 87 % 0 mm
01:04 5.3 °C 3.3 °C 1021.2 hPa NNW 3.7 km/h 2.9 km/h 87 % 0 mm
01:09 5.3 °C 3.3 °C 1021.2 hPa NNW 5.6 km/h 2.9 km/h 87 % 0 mm
01:14 5.2 °C 3.4 °C 1021.6 hPa North 5.6 km/h 4.3 km/h 88 % 0 mm
01:19 5.2 °C 3.3 °C 1021.2 hPa North 7.4 km/h 4.7 km/h 88 % 0 mm
01:24 5.2 °C 3.3 °C 1021.2 hPa NNW 5.6 km/h 3.7 km/h 88 % 0 mm
01:29 5.1 °C 3.3 °C 1021.6 hPa NNW 5.6 km/h 3.7 km/h 88 % 0 mm
01:31 5.1 °C 3.3 °C 1021.6 hPa North 7.4 km/h 4.3 km/h 88 % 0 mm
08:39 6.7 °C 3.7 °C 1020.9 hPa North 13 km/h 5 km/h 81 % 0 mm
08:44 6.8 °C 3.7 °C 1020.9 hPa NNW 9.3 km/h 9.3 km/h 81 % 0 mm
08:49 6.8 °C 3.8 °C 1020.9 hPa NNW 7.4 km/h 5.3 km/h 81 % 0 mm
08:54 6.9 °C 3.7 °C 1020.9 hPa North 13 km/h 7.4 km/h 80 % 0 mm
08:59 7.1 °C 3.8 °C 1020.9 hPa NNW 7.4 km/h 6 km/h 80 % 0 mm
09:04 7.1 °C 3.9 °C 1020.9 hPa NNW 7.4 km/h 6.9 km/h 80 % 0 mm
09:09 7.2 °C 3.8 °C 1020.9 hPa NNW 16.7 km/h 10.1 km/h 79 % 0 mm
09:14 7.3 °C 3.9 °C 1020.9 hPa North 13 km/h 9.8 km/h 79 % 0 mm
09:19 7.4 °C 4.1 °C 1020.9 hPa North 9.7 km/h 6.4 km/h 79 % 0 mm
09:24 7.6 °C 4.2 °C 1020.9 hPa North 14.8 km/h 8.7 km/h 79 % 0 mm
09:29 7.6 °C 4.2 °C 1020.5 hPa North 11.1 km/h 6.6 km/h 79 % 0 mm
09:34 7.7 °C 4.1 °C 1020.9 hPa North 13 km/h 7.9 km/h 78 % 0 mm
09:39 7.8 °C 4.2 °C 1020.9 hPa North 7.4 km/h 5.1 km/h 78 % 0 mm
09:44 7.9 °C 4.3 °C 1020.5 hPa North 13 km/h 8 km/h 78 % 0 mm
09:49 7.9 °C 4.3 °C 1020.5 hPa North 18.5 km/h 8.9 km/h 78 % 0 mm
09:54 8.1 °C 4.4 °C 1020.5 hPa North 14.8 km/h 10.5 km/h 78 % 0 mm
09:59 8.1 °C 4.3 °C 1020.5 hPa North 13 km/h 5.5 km/h 77 % 0 mm
10:04 8.2 °C 4.4 °C 1020.5 hPa North 13 km/h 13.7 km/h 77 % 0 mm
10:09 8.2 °C 4.6 °C 1020.5 hPa North 14.8 km/h 9.5 km/h 78 % 0 mm
10:14 8.2 °C 4.6 °C 1020.5 hPa North 13 km/h 9.8 km/h 78 % 0 mm
10:19 8.3 °C 4.7 °C 1020.5 hPa NNE 14.5 km/h 11.4 km/h 78 % 0 mm
10:24 8.5 °C 4.7 °C 1020.2 hPa North 20.4 km/h 12.9 km/h 77 % 0 mm
10:29 8.6 °C 4.6 °C 1020.2 hPa North 18.5 km/h 12.6 km/h 76 % 0 mm
10:34 8.7 °C 4.8 °C 1020.2 hPa North 16.7 km/h 8.7 km/h 77 % 0 mm
10:39 8.8 °C 4.8 °C 1020.2 hPa NNE 20.9 km/h 15.4 km/h 76 % 0 mm
10:44 8.8 °C 4.8 °C 1020.2 hPa NNE 18.5 km/h 9 km/h 76 % 0 mm
10:49 9 °C 5 °C 1019.9 hPa North 14.8 km/h 8.9 km/h 76 % 0 mm
10:54 9.1 °C 4.9 °C 1019.9 hPa North 14.8 km/h 8.7 km/h 75 % 0 mm
10:59 9.3 °C 4.9 °C 1019.9 hPa North 20.4 km/h 12.6 km/h 74 % 0 mm
11:04 9.6 °C 5.2 °C 1019.5 hPa North 20.4 km/h 16.6 km/h 74 % 0 mm
11:09 9.7 °C 4.8 °C 1019.5 hPa North 19.3 km/h 11.3 km/h 72 % 0 mm
11:14 9.8 °C 4.9 °C 1019.5 hPa North 18.5 km/h 12.7 km/h 72 % 0 mm
11:19 9.8 °C 4.9 °C 1019.5 hPa North 18.5 km/h 17.1 km/h 72 % 0 mm
11:24 9.9 °C 5.1 °C 1019.5 hPa North 20.4 km/h 13.5 km/h 72 % 0 mm
11:29 10 °C 5 °C 1019.5 hPa North 19.3 km/h 12.1 km/h 71 % 0 mm
11:34 10.2 °C 4.9 °C 1019.2 hPa North 18.5 km/h 12.4 km/h 70 % 0 mm
11:39 10.4 °C 5.2 °C 1019.2 hPa NNE 22.5 km/h 13.2 km/h 70 % 0 mm
11:44 10.5 °C 4.8 °C 1018.8 hPa North 37 km/h 21.4 km/h 68 % 0 mm
11:49 10.5 °C 4.8 °C 1018.8 hPa North 29.6 km/h 18.3 km/h 68 % 0 mm
11:54 10.6 °C 5.2 °C 1018.8 hPa North 18.5 km/h 11.7 km/h 69 % 0 mm
11:59 10.7 °C 5 °C 1018.5 hPa NNW 25.7 km/h 17.1 km/h 68 % 0 mm
12:04 10.8 °C 5.1 °C 1018.5 hPa North 29.6 km/h 20.1 km/h 68 % 0 mm
12:09 10.9 °C 5.3 °C 1018.5 hPa North 19.3 km/h 18 km/h 68 % 0 mm
12:14 11.1 °C 5.2 °C 1018.2 hPa NNE 18.5 km/h 12.9 km/h 67 % 0 mm
12:19 11.3 °C 5.2 °C 1018.2 hPa North 31.5 km/h 11.4 km/h 66 % 0 mm
12:24 11.3 °C 5.2 °C 1018.2 hPa NNE 25.9 km/h 10.9 km/h 66 % 0 mm
12:29 11.4 °C 5.3 °C 1017.8 hPa NNE 27.8 km/h 17.2 km/h 66 % 0 mm
12:34 11.6 °C 5.2 °C 1017.8 hPa North 20.4 km/h 15.4 km/h 65 % 0 mm
12:39 11.6 °C 5.2 °C 1017.8 hPa NNE 29.6 km/h 24 km/h 65 % 0 mm
12:44 11.6 °C 5 °C 1017.5 hPa North 27.4 km/h 23.5 km/h 64 % 0 mm
12:49 11.6 °C 4.8 °C 1017.5 hPa North 27.8 km/h 16.1 km/h 63 % 0 mm
12:54 11.7 °C 5.1 °C 1017.5 hPa North 22.2 km/h 15.8 km/h 64 % 0 mm
12:59 11.8 °C 5.4 °C 1017.5 hPa North 16.7 km/h 10.8 km/h 65 % 0 mm
13:04 12.1 °C 5.2 °C 1017.2 hPa North 22.2 km/h 17.9 km/h 63 % 0 mm
13:09 12.1 °C 5 °C 1017.2 hPa North 20.4 km/h 17.2 km/h 62 % 0 mm
13:14 11.9 °C 4.7 °C 1016.8 hPa North 27.8 km/h 16.1 km/h 61 % 0 mm
13:19 12.2 °C 4.9 °C 1016.8 hPa North 27.4 km/h 26.4 km/h 61 % 0 mm
13:24 12.1 °C 4.8 °C 1016.8 hPa North 33.3 km/h 23.2 km/h 61 % 0 mm
13:29 12.1 °C 5.1 °C 1016.8 hPa NNE 27.4 km/h 17.2 km/h 62 % 0 mm
13:34 12 °C 4.4 °C 1016.5 hPa North 48.1 km/h 22.5 km/h 60 % 0 mm
13:39 11.8 °C 4.5 °C 1016.5 hPa North 19.3 km/h 13.5 km/h 61 % 0 mm
13:44 11.6 °C 4.3 °C 1016.5 hPa NNW 29.6 km/h 25.3 km/h 61 % 0 mm
13:49 11.5 °C 4 °C 1016.5 hPa North 31.5 km/h 22 km/h 60 % 0 mm
13:54 11.7 °C 4.2 °C 1016.5 hPa North 38.9 km/h 21.4 km/h 60 % 0 mm
13:59 11.7 °C 3.5 °C 1016.5 hPa North 31.5 km/h 16.1 km/h 57 % 0 mm
14:04 11.7 °C 3.7 °C 1016.5 hPa North 22.2 km/h 18.5 km/h 58 % 0 mm
14:09 11.7 °C 3.7 °C 1016.1 hPa North 25.9 km/h 18.8 km/h 58 % 0 mm
14:14 11.8 °C 3.6 °C 1016.1 hPa North 40.7 km/h 20.6 km/h 57 % 0 mm
14:19 11.9 °C 3.4 °C 1015.8 hPa North 31.5 km/h 17.7 km/h 56 % 0 mm
14:24 11.8 °C 3.6 °C 1015.8 hPa NNW 41.8 km/h 29.9 km/h 57 % 0 mm
14:29 11.9 °C 3.6 °C 1015.8 hPa North 33.3 km/h 23.8 km/h 57 % 0 mm
14:34 12 °C 4 °C 1015.5 hPa North 33.3 km/h 24.5 km/h 58 % 0 mm
14:39 11.9 °C 3.9 °C 1015.8 hPa North 24.1 km/h 15.6 km/h 58 % 0 mm
14:44 11.9 °C 3.9 °C 1015.5 hPa NNE 35.2 km/h 18.8 km/h 58 % 0 mm
14:49 12.2 °C 3.9 °C 1015.8 hPa North 31.5 km/h 20.4 km/h 57 % 0 mm
14:54 12.2 °C 3.9 °C 1015.5 hPa North 27.8 km/h 18.3 km/h 57 % 0 mm
14:59 12.3 °C 4.1 °C 1015.5 hPa North 29.6 km/h 14.6 km/h 57 % 0 mm
15:04 12.3 °C 3.7 °C 1015.5 hPa North 27.8 km/h 15.4 km/h 56 % 0 mm
15:09 12.3 °C 3.6 °C 1015.5 hPa North 37 km/h 23.3 km/h 55 % 0 mm
15:14 12.1 °C 3.3 °C 1015.5 hPa NNW 29.6 km/h 18.3 km/h 55 % 0 mm
15:19 12.2 °C 3.1 °C 1015.5 hPa North 31.5 km/h 30.1 km/h 54 % 0 mm
15:24 12.1 °C 3.3 °C 1015.5 hPa North 42.6 km/h 18.3 km/h 55 % 0 mm
15:29 12.2 °C 3.4 °C 1015.5 hPa North 33.3 km/h 15.6 km/h 55 % 0 mm
15:34 12.4 °C 3.3 °C 1015.5 hPa NNE 29.6 km/h 17.1 km/h 54 % 0 mm
15:39 12.4 °C 3.3 °C 1015.5 hPa North 17.7 km/h 18.7 km/h 54 % 0 mm
15:44 12.3 °C 2.9 °C 1015.5 hPa North 35.2 km/h 24.6 km/h 53 % 0 mm
15:49 12.3 °C 3.2 °C 1015.1 hPa North 31.5 km/h 22.4 km/h 54 % 0 mm
15:54 12.2 °C 3.4 °C 1015.1 hPa NNE 25.9 km/h 19.6 km/h 55 % 0 mm
15:59 12.1 °C 3.3 °C 1015.1 hPa NNE 31.5 km/h 17.1 km/h 55 % 0 mm
16:04 12.1 °C 3.1 °C 1015.1 hPa NE 31.5 km/h 17.4 km/h 54 % 0 mm
16:09 12.2 °C 3.1 °C 1015.1 hPa North 30.6 km/h 17.7 km/h 54 % 0 mm
16:14 12.1 °C 3.1 °C 1015.1 hPa NNE 32.2 km/h 24.1 km/h 54 % 0 mm
16:19 12.1 °C 3 °C 1015.1 hPa NNW 27.8 km/h 24.1 km/h 54 % 0 mm
16:24 12 °C 2.9 °C 1015.1 hPa North 37 km/h 21.4 km/h 54 % 0 mm
16:29 11.9 °C 3.2 °C 1015.1 hPa North 27.4 km/h 19.3 km/h 55 % 0 mm
16:34 11.9 °C 3.1 °C 1015.1 hPa NNE 25.9 km/h 20.8 km/h 55 % 0 mm
16:39 11.8 °C 3.3 °C 1015.1 hPa North 18.5 km/h 10.9 km/h 56 % 0 mm
16:44 11.8 °C 3.3 °C 1015.1 hPa North 29.6 km/h 15.3 km/h 56 % 0 mm
16:49 11.8 °C 3.3 °C 1015.1 hPa NNE 18.5 km/h 12.1 km/h 56 % 0 mm
16:54 11.6 °C 3.4 °C 1015.1 hPa NNE 29.6 km/h 18.3 km/h 57 % 0 mm
16:59 11.4 °C 3.2 °C 1014.8 hPa North 31.5 km/h 15.6 km/h 57 % 0 mm
17:04 11.3 °C 3.1 °C 1014.8 hPa NNE 27.8 km/h 21.1 km/h 57 % 0 mm
17:09 11.2 °C 3.3 °C 1014.8 hPa NNE 25.9 km/h 11.7 km/h 58 % 0 mm
17:14 11.1 °C 3.1 °C 1014.8 hPa NNE 22.2 km/h 17.1 km/h 58 % 0 mm
17:19 10.9 °C 3.2 °C 1014.8 hPa NNE 24.1 km/h 11.6 km/h 59 % 0 mm
17:24 10.8 °C 3.1 °C 1015.1 hPa NNE 31.5 km/h 20.3 km/h 59 % 0 mm
17:29 10.8 °C 3.1 °C 1014.8 hPa North 14.8 km/h 9.3 km/h 59 % 0 mm
17:34 10.6 °C 3.2 °C 1015.1 hPa NNE 18.5 km/h 13.5 km/h 60 % 0 mm
17:39 10.4 °C 3 °C 1014.8 hPa NNE 18.5 km/h 14 km/h 60 % 0 mm
17:44 10.3 °C 3.1 °C 1015.1 hPa NNE 20.4 km/h 11.4 km/h 61 % 0 mm
17:49 10.2 °C 3.3 °C 1015.1 hPa NNE 25.9 km/h 9.8 km/h 62 % 0 mm
17:54 10.1 °C 3.2 °C 1015.1 hPa North 16.7 km/h 11.4 km/h 62 % 0 mm
17:59 10 °C 3.1 °C 1015.1 hPa NNE 25.9 km/h 10.8 km/h 62 % 0 mm
18:04 10 °C 3.1 °C 1015.1 hPa NNE 18.5 km/h 16.6 km/h 62 % 0 mm
18:09 10 °C 3.1 °C 1015.1 hPa NNE 24.1 km/h 17.7 km/h 62 % 0 mm
18:14 10 °C 3.1 °C 1015.1 hPa NNE 27.8 km/h 19.6 km/h 62 % 0 mm
18:19 10 °C 3.1 °C 1015.1 hPa NNE 25.9 km/h 15.8 km/h 62 % 0 mm
18:24 10 °C 3.1 °C 1015.1 hPa NNE 18.5 km/h 9.2 km/h 62 % 0 mm
18:29 9.9 °C 3 °C 1015.1 hPa NNE 24.1 km/h 12.4 km/h 62 % 0 mm
18:34 9.9 °C 3 °C 1015.1 hPa North 29.6 km/h 10.3 km/h 62 % 0 mm
18:39 9.9 °C 3 °C 1015.1 hPa NNE 22.2 km/h 18.8 km/h 62 % 0 mm
18:44 9.9 °C 2.9 °C 1015.1 hPa NE 24.1 km/h 18.2 km/h 62 % 0 mm
18:49 9.9 °C 2.9 °C 1015.1 hPa NE 25.9 km/h 15.9 km/h 62 % 0 mm
18:54 9.8 °C 2.9 °C 1015.1 hPa North 22.5 km/h 17.7 km/h 62 % 0 mm
18:59 9.8 °C 2.9 °C 1015.1 hPa NNE 25.9 km/h 12.6 km/h 62 % 0 mm
19:04 9.9 °C 2.9 °C 1015.1 hPa NNE 29.6 km/h 16.6 km/h 62 % 0 mm
19:09 9.9 °C 2.9 °C 1015.1 hPa NNE 25.9 km/h 17.4 km/h 62 % 0 mm
19:14 9.8 °C 2.9 °C 1015.1 hPa North 25.7 km/h 19.5 km/h 62 % 0 mm
19:19 9.9 °C 2.9 °C 1015.1 hPa NNE 29 km/h 22.5 km/h 62 % 0 mm
19:24 9.9 °C 2.8 °C 1014.8 hPa NE 37 km/h 23.3 km/h 61 % 0 mm
19:29 10 °C 2.6 °C 1014.8 hPa NNE 33.3 km/h 24.5 km/h 60 % 0 mm
19:34 10.1 °C 2.6 °C 1014.8 hPa NNE 38.9 km/h 25.3 km/h 60 % 0 mm
19:39 10.1 °C 2.6 °C 1014.8 hPa NNE 29.6 km/h 20.9 km/h 60 % 0 mm
19:44 9.9 °C 2.6 °C 1014.8 hPa NNE 25.9 km/h 20.1 km/h 60 % 0 mm
19:49 9.8 °C 2.7 °C 1014.8 hPa NNE 31.5 km/h 18.5 km/h 61 % 0 mm
19:54 9.8 °C 2.6 °C 1015.1 hPa NE 24.1 km/h 19.2 km/h 61 % 0 mm
19:59 9.8 °C 2.6 °C 1014.8 hPa NNE 27.8 km/h 19 km/h 61 % 0 mm
20:04 9.7 °C 2.5 °C 1014.8 hPa NNE 37 km/h 21.2 km/h 61 % 0 mm
20:09 9.6 °C 2.4 °C 1014.8 hPa NNE 31.5 km/h 19.6 km/h 61 % 0 mm
20:14 9.6 °C 2.4 °C 1014.8 hPa North 27.8 km/h 19.8 km/h 61 % 0 mm
20:19 9.4 °C 2.5 °C 1014.8 hPa NNE 27.8 km/h 15.1 km/h 62 % 0 mm
20:24 9.4 °C 2.4 °C 1014.8 hPa North 31.5 km/h 13.7 km/h 62 % 0 mm
20:29 9.3 °C 2.4 °C 1014.8 hPa NNE 25.9 km/h 20.9 km/h 62 % 0 mm
20:34 9.2 °C 2.3 °C 1014.8 hPa NNE 27.8 km/h 19.5 km/h 62 % 0 mm
20:39 9.2 °C 2.5 °C 1014.8 hPa NE 35.2 km/h 19.8 km/h 63 % 0 mm
20:44 9.1 °C 2.4 °C 1014.8 hPa NE 29 km/h 19 km/h 63 % 0 mm
20:49 9.1 °C 2.4 °C 1014.8 hPa NNE 35.2 km/h 21.6 km/h 63 % 0 mm
20:54 9.1 °C 2.4 °C 1014.8 hPa NNE 25.9 km/h 20 km/h 63 % 0 mm
20:59 8.9 °C 2.3 °C 1014.8 hPa NNE 35.4 km/h 22 km/h 63 % 0 mm
21:04 8.9 °C 2.3 °C 1014.4 hPa NNE 29.6 km/h 23.2 km/h 63 % 0 mm
21:09 8.9 °C 2.2 °C 1014.4 hPa North 25.9 km/h 28 km/h 63 % 0 mm
21:14 8.9 °C 2.2 °C 1014.4 hPa NNE 27.8 km/h 23.3 km/h 63 % 0 mm
21:19 8.9 °C 2.2 °C 1014.4 hPa NNE 37 km/h 29.3 km/h 63 % 0 mm
21:24 8.9 °C 2.2 °C 1014.4 hPa NNE 33.3 km/h 24.9 km/h 63 % 0 mm
21:29 8.8 °C 2.2 °C 1014.1 hPa NNE 33.3 km/h 22.4 km/h 63 % 0 mm
21:34 8.7 °C 2.1 °C 1014.4 hPa NNE 31.5 km/h 18.8 km/h 63 % 0 mm
21:39 8.7 °C 2.1 °C 1014.4 hPa NNE 25.9 km/h 20.3 km/h 63 % 0 mm
21:44 8.8 °C 2.1 °C 1014.4 hPa NNE 33.3 km/h 24.5 km/h 63 % 0 mm
21:49 8.8 °C 2.1 °C 1014.4 hPa NNE 27.8 km/h 19.3 km/h 63 % 0 mm
21:54 8.8 °C 2.1 °C 1014.1 hPa NNW 33.3 km/h 21.1 km/h 63 % 0 mm
21:59 8.8 °C 2.1 °C 1014.1 hPa NNE 37 km/h 17.1 km/h 63 % 0 mm
22:04 8.8 °C 1.9 °C 1014.1 hPa NE 33.3 km/h 20.4 km/h 62 % 0 mm
22:09 8.8 °C 1.9 °C 1014.1 hPa NNE 37 km/h 24.3 km/h 62 % 0 mm
22:14 8.8 °C 1.9 °C 1014.1 hPa NNE 35.2 km/h 21.2 km/h 62 % 0 mm
22:19 8.8 °C 2.1 °C 1014.4 hPa North 42.6 km/h 18.7 km/h 63 % 0 mm
22:24 8.7 °C 2.1 °C 1014.4 hPa NE 38.9 km/h 28 km/h 63 % 0 mm
22:29 8.7 °C 2.1 °C 1014.1 hPa NNE 31.5 km/h 22.9 km/h 63 % 0 mm
22:34 8.6 °C 1.9 °C 1014.1 hPa NNE 38.9 km/h 26.9 km/h 63 % 0 mm
22:39 8.7 °C 2 °C 1014.1 hPa NNE 44.4 km/h 27.4 km/h 63 % 0 mm
22:44 8.7 °C 2 °C 1014.1 hPa NNE 37 km/h 25.3 km/h 63 % 0 mm
22:49 8.6 °C 1.9 °C 1014.1 hPa North 33.3 km/h 22 km/h 63 % 0 mm
22:54 8.6 °C 1.9 °C 1014.1 hPa North 35.2 km/h 27.7 km/h 63 % 0 mm
22:59 8.6 °C 1.9 °C 1014.1 hPa NNE 33.3 km/h 24.6 km/h 63 % 0 mm
23:04 8.6 °C 1.9 °C 1014.1 hPa NNE 27.8 km/h 24.1 km/h 63 % 0 mm
23:09 8.6 °C 1.9 °C 1014.1 hPa NNE 33.3 km/h 21.2 km/h 63 % 0 mm
23:14 8.5 °C 1.8 °C 1014.1 hPa North 30.6 km/h 29.9 km/h 63 % 0 mm
23:19 8.5 °C 1.8 °C 1014.1 hPa NNE 32.2 km/h 27.4 km/h 63 % 0 mm
23:24 8.5 °C 1.8 °C 1014.1 hPa NNE 31.5 km/h 24.6 km/h 63 % 0 mm
23:29 8.5 °C 1.8 °C 1014.1 hPa NNE 40.7 km/h 25.1 km/h 63 % 0 mm
23:34 8.5 °C 1.8 °C 1014.1 hPa North 35.2 km/h 25.4 km/h 63 % 0 mm
23:39 8.4 °C 1.8 °C 1014.1 hPa NNE 40.7 km/h 25.7 km/h 63 % 0 mm
23:44 8.4 °C 1.8 °C 1014.1 hPa North 42.6 km/h 24.5 km/h 63 % 0 mm
23:49 8.4 °C 1.8 °C 1013.8 hPa North 35.2 km/h 22.9 km/h 63 % 0 mm
23:54 8.4 °C 1.7 °C 1014.1 hPa North 31.5 km/h 15.6 km/h 63 % 0 mm
23:59 8.4 °C 1.7 °C 1014.1 hPa North 31.5 km/h 26.7 km/h 63 % 0 mm
Ararat Weather
Compliments of Weather Underground - 1.75 mb
Click here to send mail.


ABOUT

Live weather data from Ararat, Victoria, Australia, 3377
Data uploaded from Cumulus every 5 minutes to Weather Underground.
This site then downloads the raw data for formatting and display.
Metric and imperial data can be displayed. Graphs and historical data available.
Includes Sun and Moon times and rain image live from BOM.

Check out Ararat Weather on Facebook, Twitter and Google +

Help support ongoing costs by checking out the ads





Follow @AraratWeather